Time;durP1;ratioP1;P1;durP2;ratioP2;P2;SDS_P1;SDS_P2;PMS_P1;PMS_P2;Temp;Humidity;BMP_temperature;BMP_pressure;BME280_temperature;BME280_humidity;BME280_pressure;Samples;Min_cycle;Max_cycle;Signal;HPM_P1;HPM_P2
2021/06/10 00:01:53;;;;;;;5.32;2.80;;;;;;;29.92;28.78;94304.31;5015688;28;20479;-50
2021/06/10 00:04:20;;;;;;;3.40;2.50;;;;;;;29.66;29.28;94305.91;5015628;28;20057;-47
2021/06/10 00:06:47;;;;;;;4.07;2.95;;;;;;;29.36;29.74;94301.34;5020888;28;20060;-47
2021/06/10 00:09:14;;;;;;;5.22;2.80;;;;;;;29.13;29.99;94304.72;5015427;28;20045;-49
2021/06/10 00:11:41;;;;;;;3.13;2.80;;;;;;;29.28;29.71;94294.53;5035207;28;20045;-49
2021/06/10 00:14:08;;;;;;;4.45;2.67;;;;;;;29.12;29.98;94299.75;5031890;28;20073;-47
2021/06/10 00:16:35;;;;;;;4.28;2.53;;;;;;;29.21;29.61;94291.97;5018537;28;20050;-46
2021/06/10 00:19:02;;;;;;;6.72;3.03;;;;;;;29.02;29.84;94287.22;5015325;28;20054;-50
2021/06/10 00:21:29;;;;;;;2.97;2.40;;;;;;;29.17;29.42;94275.09;5014704;28;20056;-47
2021/06/10 00:23:57;;;;;;;3.20;2.35;;;;;;;29.07;29.63;94273.31;5015349;28;20052;-47
2021/06/10 00:26:24;;;;;;;3.55;2.72;;;;;;;29.04;29.52;94277.56;5024754;28;20046;-48
2021/06/10 00:28:51;;;;;;;3.60;2.30;;;;;;;29.62;28.77;94264.78;5015233;28;20060;-48
2021/06/10 00:31:18;;;;;;;2.65;2.38;;;;;;;29.29;29.37;94261.06;5015144;28;20054;-50
2021/06/10 00:33:45;;;;;;;3.45;2.40;;;;;;;29.76;28.79;94263.81;5015120;28;20042;-47
2021/06/10 00:36:12;;;;;;;3.45;2.30;;;;;;;29.37;29.08;94248.25;5014978;28;20050;-49
2021/06/10 00:38:39;;;;;;;3.38;2.70;;;;;;;29.69;28.65;94247.78;5014104;28;20368;-47
2021/06/10 00:41:07;;;;;;;4.13;2.40;;;;;;;29.45;28.97;94245.09;5029901;28;20456;-50
2021/06/10 00:43:34;;;;;;;6.68;2.30;;;;;;;29.15;29.77;94247.84;5029992;28;20050;-47
2021/06/10 00:46:01;;;;;;;2.88;2.40;;;;;;;29.16;29.64;94252.81;5014885;28;20060;-47
2021/06/10 00:48:29;;;;;;;3.60;2.60;;;;;;;29.54;28.74;94257.25;5014953;28;20062;-48
2021/06/10 00:50:56;;;;;;;6.03;2.53;;;;;;;29.70;28.60;94254.69;5014886;28;20372;-51
2021/06/10 00:53:26;;;;;;;3.97;2.30;;;;;;;29.31;29.22;94252.59;5028338;28;20049;-50
2021/06/10 00:55:56;;;;;;;2.60;2.40;;;;;;;29.60;28.68;94250.22;5029626;28;20080;-52
2021/06/10 00:58:24;;;;;;;5.03;2.80;;;;;;;29.53;29.18;94250.34;5015148;28;20049;-47
2021/06/10 01:00:52;;;;;;;3.28;2.58;;;;;;;29.18;29.54;94241.63;5014712;28;20053;-49
2021/06/10 01:03:20;;;;;;;3.17;2.65;;;;;;;29.24;29.48;94245.38;5014375;28;20057;-52
2021/06/10 01:05:57;;;;;;;4.25;2.67;;;;;;;29.36;28.93;94242.09;5021770;28;20053;-47
2021/06/10 01:08:43;;;;;;;2.90;2.42;;;;;;;29.27;29.16;94244.56;5015031;28;20049;-48
2021/06/10 01:11:16;;;;;;;3.35;2.38;;;;;;;29.04;29.45;94231.06;5013346;28;20048;-50
2021/06/10 01:14:04;;;;;;;3.95;2.75;;;;;;;29.29;28.88;94236.84;5014731;28;20054;-47
2021/06/10 01:16:34;;;;;;;2.92;2.28;;;;;;;29.44;28.77;94240.09;5014553;28;20046;-47
2021/06/10 01:19:15;;;;;;;3.08;2.38;;;;;;;29.31;29.04;94239.88;5029811;28;20065;-50
2021/06/10 01:21:44;;;;;;;3.08;2.50;;;;;;;29.10;29.15;94253.66;5017382;28;20045;-50
2021/06/10 01:24:34;;;;;;;4.47;2.60;;;;;;;28.91;29.61;94262.41;5025491;28;20361;-47
2021/06/10 01:27:19;;;;;;;2.83;2.35;;;;;;;29.42;29.00;94255.88;5043232;28;20045;-48
2021/06/10 01:29:50;;;;;;;5.25;3.00;;;;;;;29.14;29.59;94254.38;5033604;28;20045;-49
2021/06/10 01:32:18;;;;;;;3.92;2.75;;;;;;;28.86;29.89;94266.28;5032980;28;20483;-48
2021/06/10 01:34:46;;;;;;;3.55;2.53;;;;;;;29.23;29.09;94270.78;5032975;28;20064;-48
2021/06/10 01:37:14;;;;;;;3.42;2.50;;;;;;;29.13;29.12;94279.75;5033001;28;20437;-47
2021/06/10 01:39:42;;;;;;;3.55;2.78;;;;;;;28.84;29.42;94277.44;5033103;28;20057;-50
2021/06/10 01:42:11;;;;;;;4.57;2.85;;;;;;;29.08;28.86;94277.53;5017048;28;20054;-50
2021/06/10 01:44:41;;;;;;;3.55;2.30;;;;;;;29.28;28.92;94278.38;5029665;28;20049;-49
2021/06/10 01:47:09;;;;;;;3.03;2.67;;;;;;;28.41;30.04;94287.22;5014177;28;20065;-49
2021/06/10 01:49:37;;;;;;;3.75;2.55;;;;;;;28.89;29.51;94288.94;5014494;28;20062;-49
2021/06/10 01:52:06;;;;;;;4.28;2.38;;;;;;;28.79;29.31;94285.94;5035121;28;20072;-50
2021/06/10 01:54:34;;;;;;;4.55;2.55;;;;;;;28.95;29.19;94285.41;5021999;28;20034;-48
2021/06/10 01:57:03;;;;;;;5.63;3.00;;;;;;;28.45;29.64;94274.47;5014290;28;20060;-50
2021/06/10 01:59:32;;;;;;;4.10;2.60;;;;;;;28.85;29.27;94276.28;5029784;28;20057;-48
2021/06/10 02:02:02;;;;;;;3.65;2.55;;;;;;;28.46;29.56;94266.00;5029433;28;20057;-49
2021/06/10 02:04:30;;;;;;;6.18;2.78;;;;;;;28.80;29.09;94271.34;5014513;28;20053;-48
2021/06/10 02:06:57;;;;;;;3.38;2.70;;;;;;;28.58;29.41;94263.94;5032606;28;20048;-49
2021/06/10 02:09:25;;;;;;;4.78;2.67;;;;;;;28.52;29.52;94260.94;5032690;28;20045;-50
2021/06/10 02:11:52;;;;;;;5.65;2.60;;;;;;;28.47;29.48;94258.72;5025785;28;20463;-50
2021/06/10 02:14:19;;;;;;;3.95;2.40;;;;;;;28.92;29.03;94261.25;5024932;28;20057;-49
2021/06/10 02:16:48;;;;;;;3.97;2.58;;;;;;;28.51;29.80;94259.41;5041227;28;20364;-50
2021/06/10 02:19:18;;;;;;;6.32;2.60;;;;;;;28.37;29.77;94257.69;5037395;28;20388;-50
2021/06/10 02:21:45;;;;;;;3.00;2.42;;;;;;;28.96;28.82;94268.09;5036924;28;20049;-48
2021/06/10 02:24:14;;;;;;;6.07;2.28;;;;;;;29.29;28.52;94261.06;5037164;28;20053;-47
2021/06/10 02:26:42;;;;;;;4.50;2.67;;;;;;;28.94;29.23;94269.66;5037131;28;20053;-48
2021/06/10 02:29:10;;;;;;;3.30;2.47;;;;;;;28.63;29.62;94272.34;5037379;28;20363;-49
2021/06/10 02:31:37;;;;;;;3.95;2.85;;;;;;;29.16;28.99;94268.97;5036950;28;20045;-46
2021/06/10 02:34:05;;;;;;;5.30;2.70;;;;;;;29.24;28.48;94271.53;5037143;28;20045;-49
2021/06/10 02:36:34;;;;;;;3.78;2.55;;;;;;;29.24;28.70;94272.31;5029638;28;20042;-49
2021/06/10 02:39:06;;;;;;;3.22;2.47;;;;;;;28.70;29.32;94287.63;5017592;28;20449;-51
2021/06/10 02:41:34;;;;;;;6.80;2.55;;;;;;;28.78;29.02;94276.38;5025100;28;20046;-48
2021/06/10 02:44:01;;;;;;;5.65;2.72;;;;;;;28.17;30.02;94278.97;5032400;28;20058;-49
2021/06/10 02:46:29;;;;;;;4.03;2.83;;;;;;;28.68;29.45;94279.97;5017039;28;20452;-49
2021/06/10 02:48:57;;;;;;;4.95;2.78;;;;;;;28.61;29.58;94274.66;5017376;28;20054;-46
2021/06/10 02:51:29;;;;;;;6.47;2.67;;;;;;;28.68;29.29;94274.59;5017129;28;20037;-48
2021/06/10 02:53:58;;;;;;;4.88;3.20;;;;;;;28.50;29.34;94274.78;5016202;28;20475;-47
2021/06/10 02:56:26;;;;;;;4.68;2.88;;;;;;;28.78;28.93;94279.06;5034959;28;20054;-49
2021/06/10 02:58:55;;;;;;;3.22;2.72;;;;;;;28.50;29.53;94274.03;5017044;28;20050;-48
2021/06/10 03:01:23;;;;;;;6.03;2.92;;;;;;;28.34;29.52;94276.50;5032042;28;20042;-47
2021/06/10 03:03:51;;;;;;;3.92;2.40;;;;;;;28.19;29.90;94276.66;5032032;28;20441;-49
2021/06/10 03:06:19;;;;;;;5.32;3.00;;;;;;;28.50;29.39;94279.41;5027721;28;20049;-50
2021/06/10 03:08:52;;;;;;;7.40;2.92;;;;;;;28.39;29.75;94286.84;5032200;28;20682;-47
2021/06/10 03:11:22;;;;;;;5.55;2.80;;;;;;;28.73;29.30;94279.50;5048028;28;20033;-48
2021/06/10 03:13:49;;;;;;;4.70;2.85;;;;;;;28.94;28.82;94277.75;5035412;28;20052;-47
2021/06/10 03:16:18;;;;;;;5.15;3.28;;;;;;;28.63;29.20;94277.72;5035281;28;20037;-48
2021/06/10 03:18:45;;;;;;;3.58;2.90;;;;;;;28.69;29.12;94281.47;5034778;28;20499;-48
2021/06/10 03:21:13;;;;;;;3.70;2.95;;;;;;;28.46;29.46;94274.06;5034313;28;20364;-48
2021/06/10 03:23:40;;;;;;;4.07;3.05;;;;;;;28.61;29.49;94281.97;5033253;28;20049;-48
2021/06/10 03:26:07;;;;;;;5.28;3.42;;;;;;;28.75;29.33;94285.25;5036392;28;20045;-46
2021/06/10 03:28:34;;;;;;;5.95;3.33;;;;;;;28.35;29.60;94284.19;5035185;28;20065;-47
2021/06/10 03:31:02;;;;;;;2.80;2.50;;;;;;;28.76;29.41;94292.16;5034677;28;20052;-47
2021/06/10 03:33:30;;;;;;;5.88;3.20;;;;;;;28.67;29.21;94280.38;5035920;28;20049;-47
2021/06/10 03:35:57;;;;;;;4.78;3.00;;;;;;;28.62;29.20;94278.88;5035667;28;20049;-47
2021/06/10 03:38:26;;;;;;;4.45;3.10;;;;;;;28.89;28.71;94278.97;5036152;28;20056;-48
2021/06/10 03:40:54;;;;;;;5.65;3.28;;;;;;;28.91;28.97;94286.63;5031716;28;20049;-48
2021/06/10 03:43:22;;;;;;;7.30;3.42;;;;;;;28.58;29.86;94278.16;5031291;28;20053;-46
2021/06/10 03:45:50;;;;;;;6.70;3.50;;;;;;;28.89;29.33;94289.72;5048394;28;20046;-47
2021/06/10 03:48:18;;;;;;;3.80;2.80;;;;;;;28.93;29.39;94286.97;5034750;28;20057;-50
2021/06/10 03:50:45;;;;;;;5.18;3.45;;;;;;;28.72;29.51;94283.38;5033977;28;20048;-47
2021/06/10 03:53:12;;;;;;;4.90;3.38;;;;;;;29.22;28.68;94280.03;5046137;28;20371;-49
2021/06/10 03:55:40;;;;;;;5.65;3.75;;;;;;;28.84;29.50;94282.81;5034027;28;20120;-50
2021/06/10 03:58:08;;;;;;;4.88;3.10;;;;;;;28.93;29.02;94290.44;5027453;28;20364;-47
2021/06/10 04:00:35;;;;;;;3.85;2.95;;;;;;;28.75;29.11;94285.25;5035549;28;20049;-48
2021/06/10 04:03:02;;;;;;;6.78;3.38;;;;;;;28.88;29.33;94282.78;5035706;28;20056;-47
2021/06/10 04:05:31;;;;;;;6.35;3.40;;;;;;;28.96;29.00;94284.22;5034635;28;20048;-51
2021/06/10 04:07:58;;;;;;;4.25;3.00;;;;;;;29.22;28.59;94282.72;5035591;28;20049;-48
2021/06/10 04:10:26;;;;;;;4.43;3.15;;;;;;;29.20;28.78;94276.97;5035279;28;20080;-47
2021/06/10 04:12:53;;;;;;;6.53;3.22;;;;;;;29.32;28.27;94281.78;5035270;28;20407;-49
2021/06/10 04:15:20;;;;;;;6.82;3.40;;;;;;;29.25;28.84;94273.06;5033773;28;20056;-48
2021/06/10 04:17:47;;;;;;;4.65;3.65;;;;;;;29.68;28.08;94284.72;5035326;28;20037;-50
2021/06/10 04:20:15;;;;;;;6.32;3.10;;;;;;;28.50;30.63;94274.03;5035262;28;20472;-46
2021/06/10 04:22:42;;;;;;;5.32;3.80;;;;;;;29.36;29.26;94274.41;5027835;28;20053;-46
2021/06/10 04:25:10;;;;;;;7.05;3.53;;;;;;;28.84;30.02;94277.44;5022786;28;20053;-49
2021/06/10 04:27:37;;;;;;;6.35;4.25;;;;;;;28.84;29.72;94277.44;5035061;28;20051;-49
2021/06/10 04:30:11;;;;;;;6.03;4.10;;;;;;;30.00;28.33;94273.38;5035163;28;20057;-52
2021/06/10 04:32:38;;;;;;;7.47;4.47;;;;;;;29.86;29.05;94270.19;5025456;28;20046;-44
2021/06/10 04:35:07;;;;;;;7.43;4.15;;;;;;;29.58;29.40;94271.41;5034323;28;20052;-54
2021/06/10 04:37:34;;;;;;;6.70;4.43;;;;;;;29.91;29.12;94265.06;5033754;28;20045;-47
2021/06/10 04:40:02;;;;;;;7.40;4.50;;;;;;;29.86;29.36;94270.19;5033048;28;20044;-45
2021/06/10 04:42:30;;;;;;;8.23;4.50;;;;;;;30.08;28.63;94264.03;5033819;28;20045;-42
2021/06/10 04:44:57;;;;;;;6.60;4.43;;;;;;;30.48;28.41;94264.06;5034443;28;20049;-40
2021/06/10 04:47:24;;;;;;;9.18;5.00;;;;;;;30.23;28.89;94253.75;5033971;28;20045;-54
2021/06/10 04:49:52;;;;;;;6.00;4.38;;;;;;;30.23;29.44;94274.56;5020013;28;20388;-52
2021/06/10 04:52:19;;;;;;;8.20;4.38;;;;;;;30.77;28.82;94258.09;5026459;28;20041;-52
2021/06/10 04:54:46;;;;;;;4.47;3.67;;;;;;;30.75;28.89;94265.84;5014274;28;20046;-57
2021/06/10 04:57:13;;;;;;;7.90;4.10;;;;;;;30.83;28.38;94264.50;5030932;28;20060;-52
2021/06/10 04:59:40;;;;;;;6.13;4.53;;;;;;;31.35;27.74;94269.19;5029445;28;20088;-46
2021/06/10 05:02:07;;;;;;;8.07;4.85;;;;;;;30.19;28.99;94260.34;5015057;28;20041;-45
2021/06/10 05:04:34;;;;;;;9.75;4.57;;;;;;;30.07;29.63;94267.91;5018997;28;20766;-49
2021/06/10 05:07:01;;;;;;;5.57;4.25;;;;;;;30.24;29.24;94265.28;5034887;28;20460;-52
2021/06/10 05:09:29;;;;;;;8.50;4.15;;;;;;;29.93;29.60;94262.00;5033222;28;20049;-49
2021/06/10 05:11:56;;;;;;;6.70;3.97;;;;;;;29.94;29.34;94258.88;5025323;28;20072;-49
2021/06/10 05:14:23;;;;;;;9.27;4.45;;;;;;;29.94;30.47;94264.25;5014637;28;20050;-52
2021/06/10 05:16:50;;;;;;;9.35;4.07;;;;;;;30.07;29.91;94265.19;5015214;28;20056;-49
2021/06/10 05:19:18;;;;;;;4.28;3.88;;;;;;;30.13;29.72;94267.41;5015296;28;20037;-50
2021/06/10 05:21:45;;;;;;;7.15;3.35;;;;;;;30.30;29.82;94269.03;5014445;28;20050;-50
2021/06/10 05:24:14;;;;;;;6.43;3.60;;;;;;;30.13;30.49;94270.09;5014551;28;20041;-54
2021/06/10 05:26:41;;;;;;;7.05;3.42;;;;;;;30.42;29.98;94267.63;5015072;28;20053;-52
2021/06/10 05:29:09;;;;;;;7.97;3.40;;;;;;;30.23;29.87;94274.56;5013996;28;20050;-51
2021/06/10 05:31:36;;;;;;;7.90;3.50;;;;;;;30.44;30.09;94273.38;5019850;28;20056;-50
2021/06/10 05:34:03;;;;;;;5.65;3.17;;;;;;;30.45;29.60;94269.50;5034321;28;20046;-54
2021/06/10 05:36:30;;;;;;;4.63;3.10;;;;;;;30.37;28.83;94271.56;5034129;28;20049;-50
2021/06/10 05:38:57;;;;;;;3.50;3.20;;;;;;;30.77;29.26;94268.88;5034659;28;20049;-47
2021/06/10 05:41:24;;;;;;;6.35;3.72;;;;;;;30.64;28.80;94272.22;5030604;28;20464;-50
2021/06/10 05:43:53;;;;;;;7.93;3.40;;;;;;;30.98;28.74;94273.84;5014547;28;20507;-49
2021/06/10 05:46:20;;;;;;;5.05;3.53;;;;;;;31.16;28.65;94265.31;5014478;28;20049;-52
2021/06/10 05:48:47;;;;;;;5.45;3.47;;;;;;;31.20;28.07;94269.50;5014874;28;20046;-49
2021/06/10 05:51:15;;;;;;;7.32;4.05;;;;;;;31.14;28.40;94260.34;5017115;28;20057;-48
2021/06/10 05:53:42;;;;;;;5.97;3.97;;;;;;;31.24;27.52;94272.88;5018118;28;20057;-52
2021/06/10 05:56:09;;;;;;;8.73;5.13;;;;;;;31.08;27.82;94270.13;5018197;28;20061;-50
2021/06/10 05:58:36;;;;;;;9.02;4.53;;;;;;;31.19;28.14;94272.59;5018732;28;20084;-50
2021/06/10 06:01:03;;;;;;;7.65;4.72;;;;;;;31.38;28.58;94273.72;5018224;28;20034;-49
2021/06/10 06:03:31;;;;;;;7.38;4.82;;;;;;;30.94;29.28;94276.59;5020331;28;20475;-50
2021/06/10 06:05:59;;;;;;;9.30;4.85;;;;;;;31.39;28.29;94276.00;5045518;28;20049;-51
2021/06/10 06:08:26;;;;;;;7.60;5.00;;;;;;;31.24;28.58;94285.63;5058304;28;20049;-49
2021/06/10 06:10:55;;;;;;;6.85;4.75;;;;;;;31.38;28.53;94273.72;5042969;28;20363;-49
2021/06/10 06:16:10;;;;;;;6.28;4.70;;;;;;;31.90;28.79;94281.75;5023224;28;20358;-50
2021/06/10 06:18:37;;;;;;;7.00;4.50;;;;;;;31.54;27.84;94274.50;5018489;28;20050;-48
2021/06/10 06:21:05;;;;;;;8.63;5.25;;;;;;;31.86;27.66;94281.09;5018258;28;20045;-47
2021/06/10 06:23:32;;;;;;;6.97;4.50;;;;;;;31.97;28.24;94283.50;5065471;28;20061;-49
2021/06/10 06:26:00;;;;;;;6.00;4.40;;;;;;;32.09;28.21;94282.81;5017769;28;20054;-51
2021/06/10 06:28:27;;;;;;;9.20;4.40;;;;;;;32.35;27.45;94284.47;5018048;28;20059;-49
2021/06/10 06:30:55;;;;;;;6.85;4.38;;;;;;;32.07;27.60;94285.94;5020418;28;20053;-50
2021/06/10 06:33:22;;;;;;;11.40;3.95;;;;;;;32.27;27.87;94302.09;5019395;28;20364;-48
2021/06/10 06:35:49;;;;;;;6.10;4.47;;;;;;;32.59;27.62;94293.09;5017600;28;20045;-46
2021/06/10 06:38:16;;;;;;;9.27;4.35;;;;;;;32.79;27.45;94296.41;5017875;28;20397;-49
2021/06/10 06:40:43;;;;;;;5.93;3.72;;;;;;;32.77;27.05;94295.28;5016828;28;20041;-49
2021/06/10 06:43:13;;;;;;;7.03;3.70;;;;;;;32.78;27.24;94294.09;5017359;28;20050;-47
2021/06/10 06:45:40;;;;;;;6.63;3.80;;;;;;;32.88;26.36;94303.91;5017708;28;20041;-49
2021/06/10 06:48:08;;;;;;;8.60;4.13;;;;;;;32.92;27.61;94303.78;5017784;28;20053;-46
2021/06/10 06:50:35;;;;;;;8.65;3.90;;;;;;;33.29;26.56;94307.72;5017414;28;20050;-51
2021/06/10 06:53:03;;;;;;;7.20;3.60;;;;;;;33.98;25.25;94305.19;5031567;28;20415;-50
2021/06/10 06:55:30;;;;;;;7.78;3.10;;;;;;;33.66;25.30;94301.53;5019932;28;20057;-50
2021/06/10 06:57:57;;;;;;;5.07;2.90;;;;;;;33.81;26.14;94309.97;5052584;28;20055;-48
2021/06/10 07:00:25;;;;;;;10.15;3.15;;;;;;;33.69;25.94;94314.22;5056862;28;20041;-52
2021/06/10 07:02:52;;;;;;;7.90;3.22;;;;;;;33.04;26.21;94311.91;5029181;28;20053;-49
2021/06/10 07:05:19;;;;;;;4.35;2.75;;;;;;;33.37;25.54;94304.41;5016763;28;20372;-52
2021/06/10 07:07:47;;;;;;;8.48;3.65;;;;;;;33.73;25.64;94308.69;5017270;28;20465;-52
2021/06/10 07:10:14;;;;;;;4.97;2.67;;;;;;;34.11;24.99;94314.06;5024350;28;20064;-66
2021/06/10 07:12:41;;;;;;;6.07;2.90;;;;;;;34.91;23.79;94308.97;5025258;28;20053;-56
2021/06/10 07:15:09;;;;;;;5.47;3.00;;;;;;;34.96;23.96;94310.34;5023861;28;20125;-52
2021/06/10 07:17:36;;;;;;;6.30;2.72;;;;;;;35.50;23.35;94309.84;5018139;28;20052;-43
2021/06/10 07:20:05;;;;;;;4.97;3.00;;;;;;;35.45;23.65;94318.59;5024383;28;20342;-44
2021/06/10 07:22:32;;;;;;;6.80;3.10;;;;;;;35.58;23.46;94315.00;5034836;28;20380;-53
2021/06/10 07:24:59;;;;;;;5.18;3.15;;;;;;;35.60;23.06;94328.91;5029885;28;20056;-54
2021/06/10 07:27:26;;;;;;;4.20;3.20;;;;;;;35.32;22.81;94320.63;5033295;28;20052;-53
2021/06/10 07:29:54;;;;;;;6.05;2.63;;;;;;;34.82;24.30;94330.59;5036034;28;20057;-57
2021/06/10 07:32:21;;;;;;;4.32;2.88;;;;;;;35.21;23.56;94333.84;5028596;28;20133;-50
2021/06/10 07:34:48;;;;;;;4.35;3.05;;;;;;;35.34;23.49;94337.25;5015955;28;20041;-47
2021/06/10 07:37:16;;;;;;;4.68;4.00;;;;;;;35.64;23.27;94348.53;5026347;28;20471;-53
2021/06/10 07:39:43;;;;;;;7.28;4.05;;;;;;;36.03;23.04;94353.22;5035966;28;20045;-54
2021/06/10 07:42:10;;;;;;;5.90;3.70;;;;;;;36.54;22.24;94360.84;5032417;28;20049;-49
2021/06/10 07:44:38;;;;;;;7.30;3.20;;;;;;;36.82;21.03;94360.84;5025256;28;20041;-52
2021/06/10 07:47:05;;;;;;;5.07;2.75;;;;;;;37.00;20.88;94358.88;5023242;28;20477;-50
2021/06/10 07:49:33;;;;;;;3.08;2.65;;;;;;;36.34;20.64;94357.81;5031203;28;20052;-51
2021/06/10 07:52:01;;;;;;;3.67;3.00;;;;;;;36.15;20.96;94355.03;5034072;28;20041;-52
2021/06/10 07:54:28;;;;;;;3.95;2.92;;;;;;;35.94;21.30;94364.09;5035563;28;20041;-49
2021/06/10 07:56:55;;;;;;;4.55;2.70;;;;;;;36.26;20.06;94365.50;5035756;28;20456;-50
2021/06/10 07:59:25;;;;;;;4.22;2.88;;;;;;;36.30;20.09;94365.34;5034787;28;20100;-50
2021/06/10 08:01:55;;;;;;;3.47;2.60;;;;;;;35.92;19.99;94371.94;5035282;28;20053;-51
2021/06/10 08:04:23;;;;;;;5.93;3.13;;;;;;;36.02;20.88;94375.44;5025794;28;20046;-52
2021/06/10 08:06:50;;;;;;;5.72;3.00;;;;;;;36.33;20.42;94364.47;5015485;28;20046;-51
2021/06/10 08:09:17;;;;;;;4.38;3.40;;;;;;;36.04;19.90;94368.31;5015618;28;20042;-50
2021/06/10 08:11:45;;;;;;;5.82;2.78;;;;;;;36.15;19.80;94368.63;5014847;28;20057;-53
2021/06/10 08:14:13;;;;;;;5.10;2.90;;;;;;;35.62;20.64;94376.16;5014535;28;20048;-53
2021/06/10 08:16:40;;;;;;;5.22;2.28;;;;;;;35.63;19.17;94369.53;5015399;28;20056;-52
2021/06/10 08:19:07;;;;;;;4.95;2.58;;;;;;;35.80;18.71;94380.91;5015641;28;20041;-50
2021/06/10 08:21:34;;;;;;;3.13;2.20;;;;;;;35.63;18.75;94382.34;5016824;28;20061;-52
2021/06/10 08:24:01;;;;;;;2.20;1.75;;;;;;;35.14;19.08;94370.19;5033058;28;20072;-51
2021/06/10 08:26:28;;;;;;;6.47;1.90;;;;;;;35.45;18.96;94383.81;5015451;28;20042;-55
2021/06/10 08:28:55;;;;;;;3.78;1.85;;;;;;;35.86;18.31;94383.84;5015348;28;20058;-49
2021/06/10 08:31:23;;;;;;;4.43;1.80;;;;;;;35.79;18.46;94379.41;5015098;28;20364;-50
2021/06/10 08:33:51;;;;;;;5.13;1.80;;;;;;;34.76;19.17;94378.50;5014841;28;20053;-50
2021/06/10 08:36:21;;;;;;;3.55;1.80;;;;;;;35.53;18.68;94385.06;5015107;28;20118;-51
2021/06/10 08:38:48;;;;;;;2.00;1.73;;;;;;;34.96;18.67;94393.75;5015632;28;20050;-53
2021/06/10 08:41:16;;;;;;;4.38;1.70;;;;;;;34.82;18.91;94397.69;5014662;28;20053;-60
2021/06/10 08:43:43;;;;;;;2.92;1.80;;;;;;;35.27;18.53;94391.84;5015223;28;20404;-52
2021/06/10 08:46:11;;;;;;;3.10;1.70;;;;;;;34.91;18.84;94384.25;5014149;28;20057;-52
2021/06/10 08:48:42;;;;;;;2.40;1.77;;;;;;;34.37;19.63;94385.31;5015275;28;20049;-52
2021/06/10 08:51:11;;;;;;;2.63;1.80;;;;;;;34.98;18.61;94383.22;5023215;28;20049;-52
2021/06/10 08:53:39;;;;;;;2.08;1.75;;;;;;;34.38;19.65;94381.38;5018645;28;20057;-55
2021/06/10 08:56:06;;;;;;;3.75;1.83;;;;;;;34.64;19.14;94376.63;5014583;28;20088;-51
2021/06/10 08:58:34;;;;;;;3.38;2.05;;;;;;;34.35;19.87;94376.81;5015040;28;20050;-56
2021/06/10 09:01:03;;;;;;;8.13;2.20;;;;;;;34.57;19.71;94376.84;5015098;28;20049;-52
2021/06/10 09:03:32;;;;;;;7.55;2.50;;;;;;;34.90;19.46;94380.75;5014758;28;20053;-50
2021/06/10 09:06:16;;;;;;;4.25;2.33;;;;;;;34.21;20.17;94378.03;5049856;28;20045;-52
2021/06/10 09:08:45;;;;;;;4.82;2.55;;;;;;;34.40;20.30;94383.66;5034837;28;20056;-53
2021/06/10 09:11:19;;;;;;;11.10;3.50;;;;;;;34.42;20.04;94376.59;5033332;28;20049;-55
2021/06/10 09:13:49;;;;;;;3.40;2.60;;;;;;;35.02;19.76;94362.13;5034419;28;20064;-53
2021/06/10 09:16:29;;;;;;;7.68;3.05;;;;;;;34.74;19.99;94359.19;5034026;28;20080;-50
2021/06/10 09:19:11;;;;;;;3.78;2.70;;;;;;;34.58;20.14;94373.69;5034587;28;20828;-54
2021/06/10 09:21:47;;;;;;;7.13;2.97;;;;;;;35.33;19.60;94359.41;5034067;28;20449;-52
2021/06/10 09:24:19;;;;;;;4.90;2.65;;;;;;;34.87;20.46;94356.44;5014276;28;20052;-53
2021/06/10 09:27:04;;;;;;;4.15;2.88;;;;;;;34.93;19.94;94360.88;5018377;28;20375;-50
2021/06/10 09:29:39;;;;;;;7.00;2.78;;;;;;;35.12;20.07;94366.38;5018706;28;20054;-51
2021/06/10 09:32:12;;;;;;;3.78;2.10;;;;;;;34.59;20.49;94358.16;5018498;28;20053;-54
2021/06/10 09:34:44;;;;;;;4.57;2.60;;;;;;;35.26;20.08;94349.56;5018202;28;20053;-50
2021/06/10 09:37:23;;;;;;;4.13;2.05;;;;;;;34.95;20.10;94346.84;5018497;28;20054;-59
2021/06/10 09:39:53;;;;;;;3.58;2.20;;;;;;;35.87;18.76;94345.31;5021053;28;20052;-50
2021/06/10 09:42:29;;;;;;;4.50;2.28;;;;;;;35.79;18.44;94341.34;5020503;28;20377;-52
2021/06/10 09:45:00;;;;;;;4.22;2.05;;;;;;;36.23;17.46;94352.03;5017287;28;20056;-51
2021/06/10 09:47:32;;;;;;;3.15;1.80;;;;;;;35.89;17.53;94356.50;5018081;28;20452;-53
2021/06/10 09:50:21;;;;;;;5.57;1.95;;;;;;;35.78;17.64;94354.19;5031348;28;20364;-51
2021/06/10 09:52:54;;;;;;;3.38;1.58;;;;;;;35.86;17.11;94341.06;5030536;28;20049;-51
2021/06/10 09:55:30;;;;;;;2.15;1.30;;;;;;;35.64;17.18;94351.25;5017774;28;20365;-50
2021/06/10 09:58:22;;;;;;;1.90;1.60;;;;;;;35.90;16.95;94341.69;5017782;28;20052;-50
2021/06/10 10:00:51;;;;;;;4.63;1.52;;;;;;;36.19;17.23;94343.28;5018437;28;20048;-52
2021/06/10 10:03:24;;;;;;;2.58;1.70;;;;;;;35.81;17.55;94333.50;5027997;28;20473;-49
2021/06/10 10:06:05;;;;;;;3.92;1.90;;;;;;;36.58;17.73;94328.78;5028492;28;20064;-51
2021/06/10 10:08:34;;;;;;;6.90;5.10;;;;;;;36.48;18.38;94329.25;5026812;28;20492;-50
2021/06/10 10:11:04;;;;;;;5.97;5.38;;;;;;;36.56;18.48;94325.00;5027682;28;20045;-51
2021/06/10 10:13:32;;;;;;;9.32;8.15;;;;;;;36.81;17.42;94321.22;5024788;28;20050;-52
2021/06/10 10:16:01;;;;;;;8.98;4.28;;;;;;;36.84;17.02;94323.03;5014666;28;20057;-56
2021/06/10 10:18:28;;;;;;;3.88;2.80;;;;;;;36.51;17.34;94323.66;5022556;28;20049;-54
2021/06/10 10:21:03;;;;;;;2.78;2.17;;;;;;;37.12;16.22;94321.75;5019816;28;20135;-56
2021/06/10 10:23:32;;;;;;;3.55;1.90;;;;;;;37.24;15.62;94322.78;5021989;28;20065;-53
2021/06/10 10:26:01;;;;;;;2.65;2.00;;;;;;;36.84;16.15;94331.19;5017544;28;20061;-54
2021/06/10 10:28:34;;;;;;;2.45;1.80;;;;;;;37.10;15.38;94324.19;5017717;28;20041;-55
2021/06/10 10:31:06;;;;;;;1.98;1.73;;;;;;;36.36;15.92;94311.84;5049525;28;20049;-51
2021/06/10 10:33:46;;;;;;;2.20;2.00;;;;;;;36.90;15.42;94321.19;5035982;28;20057;-52
2021/06/10 10:36:30;;;;;;;2.17;1.98;;;;;;;37.22;15.90;94309.63;5035468;28;20050;-54
2021/06/10 10:39:10;;;;;;;2.17;1.80;;;;;;;37.05;15.99;94311.94;5037380;28;20049;-57
2021/06/10 10:41:51;;;;;;;2.10;1.60;;;;;;;36.67;16.45;94309.69;5033653;28;20045;-51
2021/06/10 10:44:27;;;;;;;2.70;1.90;;;;;;;37.25;15.94;94303.28;5017198;28;20381;-51
2021/06/10 10:47:05;;;;;;;8.30;2.17;;;;;;;37.21;16.38;94313.53;5016402;28;20046;-53
2021/06/10 10:49:48;;;;;;;1.60;1.38;;;;;;;37.05;16.33;94316.63;5016602;28;20057;-56
2021/06/10 10:52:21;;;;;;;1.60;1.38;;;;;;;37.02;15.71;94309.38;5023566;28;20060;-53
2021/06/10 10:54:51;;;;;;;2.00;1.60;;;;;;;36.83;16.07;94305.19;5035257;28;20345;-56
2021/06/10 10:57:45;;;;;;;2.03;1.50;;;;;;;36.68;16.44;94305.75;5019118;28;20056;-54
2021/06/10 11:00:20;;;;;;;2.13;1.42;;;;;;;37.59;14.48;94302.06;5015214;28;20050;-50
2021/06/10 11:03:19;;;;;;;1.77;1.40;;;;;;;37.39;15.17;94301.09;5016856;28;20042;-56
2021/06/10 11:05:47;;;;;;;1.92;1.70;;;;;;;36.88;15.88;94299.88;5022557;28;20050;-57
2021/06/10 11:08:14;;;;;;;18.73;16.90;;;;;;;36.76;15.43;94295.34;5016995;28;20054;-52
2021/06/10 11:10:50;;;;;;;13.63;12.38;;;;;;;37.43;15.49;94290.78;5026724;28;20053;-54
2021/06/10 11:13:25;;;;;;;4.90;4.50;;;;;;;37.46;15.55;94289.84;5027793;28;20385;-53
2021/06/10 11:15:53;;;;;;;4.97;2.97;;;;;;;37.18;15.95;94281.00;5020289;28;20042;-52
2021/06/10 11:18:59;;;;;;;3.58;2.67;;;;;;;37.10;15.79;94285.28;5016920;28;20456;-55
2021/06/10 11:21:41;;;;;;;2.67;2.42;;;;;;;36.99;15.90;94280.34;4972171;28;20042;-56
2021/06/10 11:24:16;;;;;;;3.22;2.28;;;;;;;37.34;15.93;94289.59;4975147;28;20081;-51
2021/06/10 11:27:07;;;;;;;2.70;2.10;;;;;;;37.44;15.89;94281.38;5002219;28;20377;-55
2021/06/10 11:30:07;;;;;;;3.30;2.30;;;;;;;36.99;15.54;94285.78;5015648;28;20064;-53
2021/06/10 11:32:34;;;;;;;2.35;2.00;;;;;;;36.74;15.72;94276.72;5016259;28;20057;-51
2021/06/10 11:35:02;;;;;;;4.53;2.40;;;;;;;36.70;16.03;94270.69;5036353;28;20049;-51
2021/06/10 11:37:29;;;;;;;2.22;2.00;;;;;;;37.00;15.94;94270.94;5035885;28;20045;-52
2021/06/10 11:39:56;;;;;;;2.28;2.08;;;;;;;37.21;15.08;94269.94;5030406;28;20042;-50
2021/06/10 11:42:25;;;;;;;3.03;1.70;;;;;;;36.83;15.43;94258.88;5016079;28;20056;-53
2021/06/10 11:44:55;;;;;;;2.10;1.90;;;;;;;36.83;15.93;94250.72;5016482;28;20053;-52
2021/06/10 11:47:32;;;;;;;3.75;1.80;;;;;;;36.84;15.83;94252.22;5015820;28;20049;-51
2021/06/10 11:49:59;;;;;;;2.08;1.80;;;;;;;36.98;15.79;94257.03;5015603;28;20045;-51